Latest Weather Observations for Melbourne (Olympic Park)

IDV60801

Issued at 10:05 pm EST Thursday 2 October 2014 (issued every 30 minutes, with the page automatically refreshed every 10 minutes)

About weather observations | Map of weather stations | Latest weather observations for VIC | Other Formats
Station Details ID: 086338 Name: MELBOURNE (OLYMPIC PARK) Lat: -37.83 Lon: 144.98 Height: 7.53 m
Data from the previous 72 hours. | See also: Recent months at Melbourne (Olympic Park)
Date/Time
EST
Temp
°C
App
Temp
°C
Dew
Point
Rel
Hum
%
Delta-T
°C
Wind Press
QNH
hPa
Press
MSL
hPa
Rain
since 9 am
mm
Dir
 
Spd
km/h
Gust
km/h
Spd
kts
Gust
kts
02/10:00pm 13.2 11.7 10.6 84 1.3 S 9 17 5 9 1024.4 1024.4 0.2
02/09:30pm 13.4 11.9 10.6 83 1.5 S 9 17 5 9 1024.5 1024.5 0.2
02/09:00pm 13.5 11.9 10.3 81 1.7 S 9 19 5 10 1024.5 1024.5 0.2
02/08:30pm 13.5 12.0 10.5 82 1.6 S 9 15 5 8 1024.5 1024.5 0.2
02/08:00pm 13.5 12.0 10.7 83 1.5 S 9 17 5 9 1024.4 1024.4 0.2
02/07:30pm 13.6 11.7 10.4 81 1.7 S 11 24 6 13 1024.2 1024.2 0.2
02/07:00pm 13.6 11.4 10.8 83 1.5 S 13 22 7 12 1023.8 1023.8 0.2
02/06:30pm 13.8 11.6 10.8 82 1.6 S 13 20 7 11 1023.6 1023.6 0.2
02/06:00pm 14.1 12.3 10.7 80 1.8 S 11 19 6 10 1023.4 1023.4 0.2
02/05:30pm 14.3 12.1 10.7 79 1.9 S 13 22 7 12 1023.3 1023.3 0.2
02/05:00pm 15.1 13.1 10.3 73 2.5 S 11 20 6 11 1023.0 1023.0 0.2
02/04:30pm 15.0 12.4 10.6 75 2.3 S 15 22 8 12 1022.9 1022.9 0.2
02/04:00pm 16.0 13.9 9.9 67 3.2 S 11 24 6 13 1022.8 1022.8 0.2
02/03:30pm 15.9 13.4 9.6 66 3.3 SSW 13 24 7 13 1022.7 1022.7 0.2
02/03:00pm 17.0 14.5 8.4 57 4.4 SSW 11 20 6 11 1022.8 1022.8 0.2
02/02:30pm 16.4 12.6 7.6 56 4.4 SSW 17 26 9 14 1023.0 1023.0 0.2
02/02:00pm 16.7 14.1 7.9 56 4.4 WSW 11 20 6 11 1023.3 1023.3 0.2
02/01:30pm 16.1 13.5 7.6 57 4.2 SW 11 20 6 11 1023.6 1023.6 0.2
02/01:00pm 15.5 12.9 7.8 60 3.8 SW 11 20 6 11 1023.9 1023.9 0.2
02/12:30pm 14.8 12.4 8.5 66 3.2 SW 11 22 6 12 1024.1 1024.1 0.2
02/12:00pm 15.2 12.5 7.5 60 3.8 SW 11 19 6 10 1024.2 1024.2 0.0
02/11:30am 14.8 12.4 8.5 66 3.2 SW 11 19 6 10 1024.3 1024.3 0.0
02/11:00am 14.5 11.8 7.3 62 3.5 WSW 11 20 6 11 1024.5 1024.5 0.0
02/10:30am 14.1 11.1 7.6 65 3.2 SW 13 26 7 14 1024.7 1024.7 0.0
02/10:00am 13.8 10.9 8.2 69 2.8 W 13 22 7 12 1024.8 1024.8 0.0
02/09:30am 13.3 11.2 8.4 72 2.4 WSW 9 17 5 9 1024.9 1024.9 0.0
02/09:00am 13.1 11.0 8.2 72 2.4 WNW 9 19 5 10 1024.7 1024.7 0.0
02/08:30am 12.5 10.5 8.8 78 1.8 NW 9 15 5 8 1024.5 1024.5 0.0
02/08:00am 12.0 10.6 8.8 81 1.6 W 6 13 3 7 1024.3 1024.3 0.0
02/07:30am 11.6 10.0 8.8 83 1.4 W 7 13 4 7 1024.3 1024.3 0.0
02/07:00am 11.1 10.4 8.7 85 1.2 WNW 2 11 1 6 1024.2 1024.2 0.0
02/06:30am 10.6 10.4 9.0 90 0.8 CALM 0 0 0 0 1024.1 1024.1 0.0
02/06:00am 10.3 10.1 8.9 91 0.7 SSW 0 0 0 0 1023.9 1023.9 0.0
02/05:30am 10.1 8.4 8.4 89 0.8 W 7 11 4 6 1024.0 1024.0 0.0
02/05:00am 11.1 10.1 7.2 77 1.9 WNW 2 7 1 4 1023.9 1023.9 0.0
02/04:30am 11.2 9.1 6.7 74 2.1 W 7 20 4 11 1023.8 1023.8 0.0
02/04:00am 11.1 10.3 6.5 73 2.2 CALM 0 4 0 2 1023.7 1023.7 0.0
02/03:30am 10.8 9.1 6.0 72 2.2 NW 4 9 2 5 1023.8 1023.8 0.0
02/03:00am 10.0 8.3 6.0 76 1.8 WNW 4 9 2 5 1023.9 1023.9 0.0
02/02:30am 9.8 8.4 5.6 75 1.9 NNW 2 7 1 4 1024.2 1024.2 0.0
02/02:00am 10.2 8.9 5.8 74 2.0 NW 2 11 1 6 1024.4 1024.4 0.0
02/01:30am 10.5 8.2 5.7 72 2.2 NW 7 13 4 7 1024.7 1024.7 0.0
02/01:00am 10.3 8.0 5.5 72 2.2 WNW 7 17 4 9 1024.9 1024.9 0.0
02/12:30am 10.3 8.0 5.5 72 2.2 WNW 7 13 4 7 1025.0 1025.0 0.0
02/12:00am 10.4 8.0 5.4 71 2.3 WNW 7 13 4 7 1025.2 1025.2 0.0
 
Date/Time
EST
Temp
°C
App
Temp
°C
Dew
Point
Rel
Hum
%
Delta-T
°C
Wind Press
QNH
hPa
Press
MSL
hPa
Rain
since 9 am
mm
Dir
 
Spd
km/h
Gust
km/h
Spd
kts
Gust
kts
01/11:30pm 10.6 8.2 5.2 69 2.5 WNW 7 15 4 8 1025.3 1025.3 0.0
01/11:00pm 10.7 8.5 5.5 70 2.4 WNW 6 13 3 7 1025.5 1025.5 0.0
01/10:30pm 10.9 8.6 5.7 70 2.4 W 7 13 4 7 1025.7 1025.7 0.0
01/10:00pm 11.2 8.5 5.5 68 2.6 W 9 19 5 10 1025.7 1025.7 0.0
01/09:30pm 11.4 8.6 5.3 66 2.8 W 9 15 5 8 1025.7 1025.7 0.0
01/09:00pm 11.8 9.6 5.4 65 2.9 WSW 6 15 3 8 1025.6 1025.6 0.0
01/08:30pm 12.1 9.9 5.5 64 3.1 SW 6 13 3 7 1025.5 1025.5 0.0
01/08:00pm 12.5 10.3 5.2 61 3.4 WSW 6 13 3 7 1025.2 1025.2 0.0
01/07:30pm 12.6 11.4 6.6 67 2.9 SW 2 7 1 4 1024.9 1024.9 0.0
01/07:00pm 12.6 11.1 6.6 67 2.8 S 4 9 2 5 1024.6 1024.6 0.0
01/06:30pm 12.5 10.4 6.5 67 2.9 S 7 15 4 8 1024.4 1024.4 0.0
01/06:00pm 12.6 10.0 6.0 64 3.1 S 9 15 5 8 1024.1 1024.1 0.0
01/05:30pm 12.9 9.5 5.8 62 3.3 SSW 13 20 7 11 1024.2 1024.2 0.0
01/05:00pm 13.5 10.9 5.9 60 3.6 S 9 15 5 8 1024.1 1024.1 0.0
01/04:30pm 12.9 9.8 5.6 61 3.4 S 11 17 6 9 1024.2 1024.2 0.0
01/04:00pm 13.4 9.9 5.6 59 3.6 SSW 13 22 7 12 1023.9 1023.9 0.0
01/03:30pm 13.3 10.3 6.2 62 3.4 S 11 19 6 10 1024.0 1024.0 0.0
01/03:00pm 13.2 9.8 6.1 62 3.3 SSW 13 19 7 10 1024.1 1024.1 0.0
01/02:30pm 13.5 9.9 4.9 56 4.0 SSW 13 26 7 14 1024.0 1024.0 0.0
01/02:00pm 14.0 10.9 5.4 56 4.0 SW 11 17 6 9 1023.6 1023.6 0.0
01/01:30pm 14.5 9.7 4.5 51 4.6 S 19 28 10 15 1024.2 1024.2 0.0
01/01:00pm 14.0 9.8 5.6 57 3.9 SSW 17 30 9 16 1024.4 1024.4 0.0
01/12:30pm 14.0 10.2 3.8 50 4.6 SSW 13 24 7 13 1024.1 1024.1 0.0
01/12:00pm 14.1 10.3 4.1 51 4.6 S 13 20 7 11 1024.0 1024.0 0.0
01/11:30am 14.3 11.7 4.3 51 4.6 NNW 7 41 4 22 1024.2 1024.2 0.0
01/11:00am 13.5 8.8 3.3 50 4.5 SW 17 32 9 17 1024.1 1024.1 0.0
01/10:30am 13.7 9.9 4.0 52 4.4 SW 13 20 7 11 1024.1 1024.1 0.0
01/10:00am 13.5 10.2 4.6 55 4.1 WSW 11 20 6 11 1023.8 1023.8 0.0
01/09:30am 13.1 8.6 4.3 55 4.0 W 17 30 9 16 1023.5 1023.5 0.0
01/09:00am 12.6 9.2 4.1 56 3.8 WSW 11 20 6 11 1023.0 1023.0 2.6
01/08:30am 11.4 7.7 4.2 61 3.2 WSW 13 26 7 14 1022.7 1022.7 2.6
01/08:00am 10.0 6.6 4.0 66 2.6 W 11 26 6 14 1022.2 1022.2 2.6
01/07:30am 9.1 6.1 3.9 70 2.3 WNW 9 22 5 12 1021.7 1021.7 2.6
01/07:00am 8.3 5.2 3.8 73 1.9 W 9 17 5 9 1021.2 1021.2 2.6
01/06:30am 8.0 4.2 3.8 75 1.8 WNW 13 24 7 13 1020.7 1020.7 2.6
01/06:00am 7.4 4.3 3.5 76 1.7 WNW 9 15 5 8 1020.2 1020.2 2.6
01/05:30am 7.6 4.5 3.5 75 1.7 W 9 17 5 9 1019.6 1019.6 2.6
01/05:00am 7.7 5.0 3.6 75 1.7 WNW 7 11 4 6 1019.2 1019.2 2.6
01/04:30am 7.9 4.8 3.4 73 1.9 W 9 17 5 9 1018.9 1018.9 2.6
01/04:00am 8.0 4.8 3.3 72 2.0 WNW 9 19 5 10 1018.4 1018.4 2.6
01/03:30am 8.1 4.5 3.2 71 2.1 W 11 20 6 11 1018.1 1018.1 2.6
01/03:00am 8.1 4.5 3.0 70 2.2 W 11 19 6 10 1017.7 1017.7 2.6
01/02:30am 8.1 4.2 3.2 71 2.1 W 13 22 7 12 1017.6 1017.6 2.6
01/02:00am 8.2 4.7 3.3 71 2.1 W 11 19 6 10 1017.3 1017.3 2.6
01/01:30am 8.3 5.2 3.6 72 2.0 W 9 19 5 10 1017.0 1017.0 2.6
01/01:00am 8.5 4.6 3.6 71 2.1 W 13 22 7 12 1016.8 1016.8 2.6
01/12:30am 8.5 4.7 3.8 72 2.0 W 13 26 7 14 1016.2 1016.2 2.6
01/12:00am 8.6 5.1 3.6 71 2.2 W 11 24 6 13 1015.8 1015.8 2.6
 
Date/Time
EST
Temp
°C
App
Temp
°C
Dew
Point
Rel
Hum
%
Delta-T
°C
Wind Press
QNH
hPa
Press
MSL
hPa
Rain
since 9 am
mm
Dir
 
Spd
km/h
Gust
km/h
Spd
kts
Gust
kts
30/11:30pm 9.0 4.7 3.4 68 2.4 W 15 30 8 16 1015.3 1015.3 2.6
30/11:00pm 9.7 4.9 2.6 61 3.0 W 17 32 9 17 1015.2 1015.2 2.6
30/10:30pm 10.1 6.4 2.2 58 3.3 W 11 22 6 12 1014.8 1014.8 2.6
30/10:00pm 10.2 6.6 3.0 61 3.1 WNW 11 28 6 15 1014.2 1014.2 2.6
30/09:30pm 10.4 7.0 4.1 65 2.8 WNW 11 20 6 11 1013.6 1013.6 2.6
30/09:00pm 10.4 7.0 3.9 64 2.9 WNW 11 20 6 11 1013.4 1013.4 2.6
30/08:30pm 10.1 7.2 4.9 70 2.3 W 9 24 5 13 1013.4 1013.4 2.6
30/08:00pm 10.9 7.3 4.8 66 2.8 W 13 20 7 11 1012.9 1012.9 2.6
30/07:30pm 11.0 7.3 4.5 64 2.9 W 13 24 7 13 1012.4 1012.4 2.6
30/07:00pm 11.3 8.2 5.6 68 2.6 WSW 11 20 6 11 1011.7 1011.7 2.6
30/06:30pm 11.8 7.6 5.9 67 2.8 WSW 17 37 9 20 1011.2 1011.2 2.6
30/06:00pm 12.5 8.6 5.2 61 3.4 WNW 15 28 8 15 1010.5 1010.5 2.6
30/05:30pm 12.1 8.2 5.3 63 3.1 WNW 15 24 8 13 1009.9 1009.9 2.6
30/05:00pm 11.4 7.5 5.5 67 2.7 W 15 32 8 17 1010.0 1010.0 2.6
30/04:30pm 10.0 5.4 6.5 79 1.6 W 20 39 11 21 1009.5 1009.5 2.4
30/04:16pm 10.3 4.3 7.2 81 1.5 W 28 65 15 35 1009.8 1009.8 2.0
30/04:00pm 11.3 6.8 8.7 84 1.3 WSW 22 59 12 32 1008.8 1008.8 1.4
30/03:53pm 11.9 7.7 9.8 87 1.1 WSW 22 52 12 28 1008.0 1008.0 1.2
30/03:30pm 13.9 11.1 11.2 84 1.4 W 17 32 9 17 1006.0 1006.0 0.6
30/03:16pm 14.1 9.5 10.9 81 1.7 W 26 54 14 29 1005.4 1005.4 0.4
30/03:01pm 19.1 12.8 5.6 41 6.6 W 28 54 15 29 1004.4 1004.4 0.0
30/03:00pm 20.8 14.8 5.2 36 7.7 W 26 46 14 25 1004.0 1004.0 0.0
30/02:32pm 23.5 17.0 4.5 29 9.4 NW 28 56 15 30 1002.2 1002.2 0.0
30/02:30pm 23.6 17.4 4.5 29 9.5 NW 26 56 14 30 1002.1 1002.1 0.0
30/02:09pm 23.3 16.8 4.8 30 9.2 NNW 28 57 15 31 1002.4 1002.4 0.0
30/02:00pm 23.4 17.8 5.3 31 9.1 NNW 24 54 13 29 1002.4 1002.4 0.0
30/01:30pm 22.7 15.8 6.5 35 8.3 N 32 50 17 27 1002.7 1002.7 0.0
30/01:11pm 21.9 15.7 6.2 36 7.9 NNW 28 50 15 27 1003.4 1003.4 0.0
30/01:00pm 21.7 16.4 6.8 38 7.6 NNW 24 43 13 23 1003.9 1003.9 0.0
30/12:30pm 21.5 15.6 7.3 40 7.3 NNW 28 48 15 26 1004.8 1004.8 0.0
30/12:00pm 21.4 15.3 8.3 43 6.9 N 30 50 16 27 1005.4 1005.4 0.0
30/11:39am 20.7 15.0 8.4 45 6.4 N 28 46 15 25 1005.7 1005.7 0.0
30/11:30am 20.2 14.8 8.2 46 6.2 N 26 41 14 22 1006.0 1006.0 0.0
30/11:11am 19.9 14.1 7.9 46 6.2 NNW 28 50 15 27 1006.4 1006.4 0.0
30/11:00am 20.1 13.7 7.1 43 6.6 NNW 30 46 16 25 1006.5 1006.5 0.0
30/10:42am 20.7 14.7 7.0 41 7.0 NNW 28 52 15 28 1006.5 1006.5 0.0
30/10:30am 20.7 15.7 6.3 39 7.2 N 22 43 12 23 1006.8 1006.8 0.0
30/10:00am 20.2 15.2 8.2 46 6.2 N 24 35 13 19 1007.5 1007.5 0.0
30/09:30am 20.2 16.1 7.9 45 6.4 N 19 35 10 19 1008.2 1008.2 0.0
30/09:00am 18.8 14.7 8.7 52 5.3 N 20 32 11 17 1008.9 1008.9 0.0
30/08:30am 17.6 13.4 8.2 54 4.8 N 20 28 11 15 1009.4 1009.4 0.0
30/08:00am 16.6 12.3 7.8 56 4.4 N 20 30 11 16 1009.7 1009.7 0.0
30/07:30am 15.8 12.1 7.8 59 4.0 NNW 17 24 9 13 1010.1 1010.1 0.0
30/07:00am 15.1 11.8 7.9 62 3.6 NNW 15 22 8 12 1010.3 1010.3 0.0
30/06:30am 14.5 10.9 8.2 66 3.2 N 17 24 9 13 1010.1 1010.1 0.0
30/06:00am 14.4 11.2 8.4 67 3.0 N 15 22 8 12 1009.5 1009.5 0.0
30/05:30am 14.6 11.4 8.3 66 3.2 N 15 20 8 11 1009.5 1009.5 0.0
30/05:00am 14.7 10.7 8.4 66 3.2 N 19 20 10 11 1009.0 1009.0 0.0
30/04:30am 14.7 13.2 8.4 66 3.2 NW 6 11 3 6 1009.1 1009.1 0.0
30/04:00am 14.6 13.5 8.3 66 3.2 NW 4 7 2 4 1009.1 1009.1 0.0
30/03:30am 14.4 13.2 9.4 72 2.6 WNW 6 11 3 6 1009.5 1009.5 0.0
30/03:00am 13.6 13.5 9.3 75 2.2 CALM 0 0 0 0 1009.7 1009.7 0.0
30/02:30am 15.0 14.3 8.7 66 3.2 NW 2 7 1 4 1009.9 1009.9 0.0
30/02:00am 15.9 13.9 8.6 62 3.7 W 9 20 5 11 1010.5 1010.5 0.0
30/01:30am 16.4 13.7 8.9 61 3.9 N 13 19 7 10 1010.4 1010.4 0.0
30/01:00am 16.4 13.4 9.1 62 3.8 N 15 19 8 10 1010.7 1010.7 0.0
30/12:30am 16.9 13.5 9.1 60 4.0 N 17 24 9 13 1011.1 1011.1 0.0
30/12:00am 17.4 14.0 9.1 58 4.3 N 17 28 9 15 1011.3 1011.3 0.0
 
Date/Time
EST
Temp
°C
App
Temp
°C
Dew
Point
Rel
Hum
%
Delta-T
°C
Wind Press
QNH
hPa
Press
MSL
hPa
Rain
since 9 am
mm
Dir
 
Spd
km/h
Gust
km/h
Spd
kts
Gust
kts
29/11:30pm 17.2 13.4 9.1 59 4.2 N 19 28 10 15 1011.6 1011.6 0.0
29/11:00pm 17.1 13.7 9.3 60 4.1 N 17 26 9 14 1011.9 1011.9 0.0
29/10:30pm 17.2 13.8 9.1 59 4.2 N 17 26 9 14 1012.0 1012.0 0.0

Other Formats:

Comma delimited format used in spreadsheet applications
http://www.bom.gov.au/fwo/IDV60801/IDV60801.95936.axf

JavaScript Object Notation format (JSON) in row-major order
http://www.bom.gov.au/fwo/IDV60801/IDV60801.95936.json